createdAt,value
2022-12-18T00:04:42.114Z,-12.78
2022-12-18T00:09:43.978Z,-12.87
2022-12-18T00:14:45.819Z,-12.95
2022-12-18T00:19:47.709Z,-13.06
2022-12-18T00:24:49.566Z,-12.98
2022-12-18T00:29:51.382Z,-13.02
2022-12-18T00:34:53.199Z,-13.04
2022-12-18T00:39:55.031Z,-13.06
2022-12-18T00:44:56.819Z,-13.10
2022-12-18T00:49:58.647Z,-13.16
2022-12-18T00:55:05.849Z,-13.28
2022-12-18T01:00:10.877Z,-13.22
2022-12-18T01:05:13.644Z,-13.19
2022-12-18T01:10:15.738Z,-13.31
2022-12-18T01:15:18.531Z,-13.30
2022-12-18T01:20:20.486Z,-13.26
2022-12-18T01:25:22.286Z,-13.25
2022-12-18T01:30:26.085Z,-13.38
2022-12-18T01:35:28.531Z,-13.43
2022-12-18T01:40:30.364Z,-13.33
2022-12-18T01:45:33.252Z,-13.35
2022-12-18T01:50:39.100Z,-13.51
2022-12-18T01:55:49.521Z,-13.52
2022-12-18T02:00:51.390Z,-13.52
2022-12-18T02:06:18.281Z,-13.57
2022-12-18T02:11:36.673Z,-13.62
2022-12-18T02:16:46.364Z,-13.55
2022-12-18T02:22:14.412Z,-13.81
2022-12-18T02:27:16.504Z,-13.93
2022-12-18T02:32:28.433Z,-13.86
2022-12-18T02:37:32.404Z,-13.86
2022-12-18T02:42:36.847Z,-13.92
2022-12-18T02:47:45.081Z,-13.93
2022-12-18T02:52:51.294Z,-13.89
2022-12-18T02:58:21.675Z,-13.91
2022-12-18T03:03:37.454Z,-14.11
2022-12-18T03:08:45.474Z,-14.23
2022-12-18T03:13:58.245Z,-14.18
2022-12-18T03:19:04.243Z,-14.19
2022-12-18T03:24:10.758Z,-14.29
2022-12-18T03:29:26.606Z,-14.32
2022-12-18T03:34:36.663Z,-14.14
2022-12-18T03:39:41.878Z,-14.20
2022-12-18T03:45:12.968Z,-14.19
2022-12-18T03:50:15.861Z,-14.29
2022-12-18T03:55:22.863Z,-14.19
2022-12-18T04:00:32.054Z,-14.28
2022-12-18T04:05:44.795Z,-14.26
2022-12-18T04:10:47.531Z,-14.21
2022-12-18T04:15:49.429Z,-14.47
2022-12-18T04:20:53.368Z,-14.49
2022-12-18T04:25:55.804Z,-14.49
2022-12-18T04:31:11.442Z,-14.52
2022-12-18T04:36:13.583Z,-14.47
2022-12-18T04:41:16.272Z,-14.55
2022-12-18T04:46:20.770Z,-14.64
2022-12-18T04:51:26.298Z,-14.63
2022-12-18T04:56:28.371Z,-14.54
2022-12-18T05:01:34.561Z,-14.74
2022-12-18T05:06:36.785Z,-14.81
2022-12-18T05:11:38.482Z,-14.80
2022-12-18T05:16:40.161Z,-14.72
2022-12-18T05:21:41.725Z,-14.65
2022-12-18T05:26:43.355Z,-14.70
2022-12-18T05:31:46.154Z,-14.83
2022-12-18T05:36:47.788Z,-14.81
2022-12-18T05:41:49.358Z,-14.96
2022-12-18T05:46:50.955Z,-14.84
2022-12-18T05:51:52.615Z,-14.86
2022-12-18T05:56:54.836Z,-14.94
2022-12-18T06:01:56.481Z,-14.99
2022-12-18T06:06:58.588Z,-14.99
2022-12-18T06:12:00.282Z,-14.96
2022-12-18T06:17:01.933Z,-15.08
2022-12-18T06:22:03.606Z,-15.25
2022-12-18T06:27:05.214Z,-15.23
2022-12-18T06:32:06.856Z,-15.18
2022-12-18T06:37:08.474Z,-15.22
2022-12-18T06:42:10.211Z,-15.17
2022-12-18T06:47:12.044Z,-15.17
2022-12-18T06:52:13.641Z,-15.27
2022-12-18T06:57:15.221Z,-15.30
2022-12-18T07:02:17.108Z,-15.38
2022-12-18T07:07:18.889Z,-15.37
2022-12-18T07:12:20.529Z,-15.24
2022-12-18T07:17:22.284Z,-15.22
2022-12-18T07:22:23.874Z,-15.00
2022-12-18T07:27:25.588Z,-15.04
2022-12-18T07:32:27.825Z,-15.09
2022-12-18T07:37:29.545Z,-14.99
2022-12-18T07:42:34.244Z,-14.87
2022-12-18T07:47:37.188Z,-14.74
2022-12-18T07:52:38.838Z,-14.68
2022-12-18T07:58:00.842Z,-14.67
2022-12-18T08:03:02.705Z,-14.44
2022-12-18T08:08:04.458Z,-14.23
2022-12-18T08:13:06.069Z,-14.07
2022-12-18T08:18:11.438Z,-13.94
2022-12-18T08:23:15.586Z,-13.72
2022-12-18T08:28:17.800Z,-13.44
2022-12-18T08:33:19.399Z,-13.05
2022-12-18T08:38:21.064Z,-12.78
2022-12-18T08:43:41.416Z,-12.31
2022-12-18T08:48:43.641Z,-11.76
2022-12-18T08:53:45.730Z,-11.06
2022-12-18T08:58:47.565Z,-10.49
2022-12-18T09:03:52.443Z,-9.99
2022-12-18T09:08:54.064Z,-9.50
2022-12-18T09:13:56.438Z,-9.08
2022-12-18T09:19:00.661Z,-8.84
2022-12-18T09:24:02.516Z,-8.58
2022-12-18T09:29:05.099Z,-8.04
2022-12-18T09:34:06.947Z,-7.96
2022-12-18T09:39:09.144Z,-7.30
2022-12-18T09:44:13.728Z,-7.03
2022-12-18T09:49:18.539Z,-6.71
2022-12-18T09:54:31.780Z,-6.27
2022-12-18T09:59:40.683Z,-5.74
2022-12-18T10:04:43.064Z,-5.30
2022-12-18T10:10:02.008Z,-5.06
2022-12-18T10:15:03.544Z,-4.89
2022-12-18T10:20:28.254Z,-4.56
2022-12-18T10:25:32.580Z,-4.24
2022-12-18T10:30:34.469Z,-3.87
2022-12-18T10:35:37.359Z,-3.65
2022-12-18T10:41:04.017Z,-3.27
2022-12-18T10:46:12.981Z,-2.64
2022-12-18T10:51:31.372Z,-1.49
2022-12-18T10:56:36.851Z,-0.18
2022-12-18T11:01:52.514Z,1.17
2022-12-18T11:06:58.931Z,3.15
2022-12-18T11:12:04.556Z,4.94
2022-12-18T11:17:25.343Z,5.05
2022-12-18T11:22:30.280Z,4.47
2022-12-18T11:27:33.068Z,3.79
2022-12-18T11:32:45.017Z,3.05
2022-12-18T11:37:59.177Z,3.08
2022-12-18T11:43:18.397Z,4.22
2022-12-18T11:48:29.555Z,5.02
2022-12-18T11:53:31.830Z,4.21
2022-12-18T11:58:48.802Z,4.00
2022-12-18T12:04:00.054Z,4.05
2022-12-18T12:09:30.925Z,4.93
2022-12-18T12:14:32.676Z,4.99
2022-12-18T12:19:58.434Z,6.60
2022-12-18T12:25:21.006Z,8.05
2022-12-18T12:30:27.645Z,8.00
2022-12-18T12:35:41.477Z,9.36
2022-12-18T12:41:02.467Z,8.04
2022-12-18T12:46:08.093Z,4.57
2022-12-18T12:51:17.327Z,2.33
2022-12-18T12:56:22.293Z,0.54
2022-12-18T13:01:36.771Z,0.16
2022-12-18T13:06:54.449Z,-0.16
2022-12-18T13:12:30.377Z,-0.62
2022-12-18T13:17:36.892Z,-0.64
2022-12-18T13:22:43.025Z,-1.38
2022-12-18T13:27:44.826Z,-1.82
2022-12-18T13:32:46.641Z,-2.25
2022-12-18T13:37:56.394Z,-2.49
2022-12-18T13:43:14.055Z,-2.60
2022-12-18T13:48:18.885Z,-2.83
2022-12-18T13:53:54.721Z,-3.09
2022-12-18T13:59:18.357Z,-3.36
2022-12-18T14:04:47.320Z,-3.39
2022-12-18T14:15:27.689Z,-3.65
2022-12-18T14:20:33.894Z,-3.71
2022-12-18T14:25:35.697Z,-3.84
2022-12-18T14:30:42.898Z,-4.00
2022-12-18T14:35:58.367Z,-4.20
2022-12-18T14:41:12.051Z,-4.27
2022-12-18T14:46:35.948Z,-4.49
2022-12-18T14:51:37.916Z,-4.72
2022-12-18T14:56:49.142Z,-4.83
2022-12-18T15:01:51.005Z,-4.95
2022-12-18T15:07:14.948Z,-5.25
2022-12-18T15:12:29.352Z,-5.52
2022-12-18T15:17:31.395Z,-5.68
2022-12-18T15:22:37.941Z,-5.82
2022-12-18T15:27:39.865Z,-6.00
2022-12-18T15:32:46.192Z,-6.02
2022-12-18T15:37:48.666Z,-5.96
2022-12-18T15:43:13.554Z,-5.92
2022-12-18T15:48:23.566Z,-6.15
2022-12-18T15:53:30.585Z,-6.35
2022-12-18T15:58:32.452Z,-6.55
2022-12-18T16:03:34.420Z,-6.48
2022-12-18T16:08:36.378Z,-6.42
2022-12-18T16:13:38.486Z,-6.41
2022-12-18T16:18:40.793Z,-6.40
2022-12-18T16:23:42.885Z,-6.51
2022-12-18T16:28:48.414Z,-6.61
2022-12-18T16:33:50.253Z,-6.64
2022-12-18T16:38:51.894Z,-6.77
2022-12-18T16:43:55.093Z,-6.86
2022-12-18T16:48:59.424Z,-6.93
2022-12-18T16:54:05.138Z,-6.80
2022-12-18T16:59:11.606Z,-6.93
2022-12-18T17:04:13.298Z,-7.12
2022-12-18T17:09:16.444Z,-7.00
2022-12-18T17:14:20.991Z,-7.05
2022-12-18T17:19:25.095Z,-7.09
2022-12-18T17:24:31.396Z,-7.13
2022-12-18T17:29:36.192Z,-7.27
2022-12-18T17:34:37.933Z,-7.07
2022-12-18T17:39:40.061Z,-6.91
2022-12-18T17:44:42.451Z,-6.93
2022-12-18T17:49:44.204Z,-6.95
2022-12-18T17:54:45.819Z,-6.94
2022-12-18T17:59:48.848Z,-6.86
2022-12-18T18:04:50.460Z,-6.69
2022-12-18T18:09:52.037Z,-6.76
2022-12-18T18:14:53.664Z,-6.79
2022-12-18T18:19:55.543Z,-6.66
2022-12-18T18:24:57.137Z,-6.55
2022-12-18T18:29:58.743Z,-6.24
2022-12-18T18:35:00.334Z,-6.16
2022-12-18T18:40:02.739Z,-6.19
2022-12-18T18:45:04.652Z,-6.14
2022-12-18T18:50:06.903Z,-5.99
2022-12-18T18:55:13.613Z,-5.92
2022-12-18T19:00:23.013Z,-6.07
2022-12-18T19:05:24.663Z,-5.98
2022-12-18T19:10:26.594Z,-5.97
2022-12-18T19:15:28.165Z,-5.72
2022-12-18T19:20:29.856Z,-5.61
2022-12-18T19:25:38.605Z,-5.14
2022-12-18T19:30:42.431Z,-5.33
2022-12-18T19:35:44.123Z,-5.31
2022-12-18T19:40:46.975Z,-5.22
2022-12-18T19:45:55.112Z,-5.18
2022-12-18T19:50:56.837Z,-5.14
2022-12-18T19:55:58.523Z,-5.01
2022-12-18T20:01:00.456Z,-4.78
2022-12-18T20:06:14.103Z,-4.44
2022-12-18T20:11:15.744Z,-4.27
2022-12-18T20:16:17.448Z,-4.15
2022-12-18T20:21:19.171Z,-3.78
2022-12-18T20:26:21.099Z,-3.52
2022-12-18T20:31:23.753Z,-2.12
2022-12-18T20:36:26.979Z,-1.86
2022-12-18T20:41:37.549Z,-1.88
2022-12-18T20:46:40.492Z,-2.12
2022-12-18T20:51:42.064Z,-2.12
2022-12-18T20:56:43.661Z,-1.69
2022-12-18T21:01:49.010Z,-1.74
2022-12-18T21:06:59.212Z,-1.26
2022-12-18T21:12:22.535Z,-1.12
2022-12-18T21:17:24.297Z,-1.30
2022-12-18T21:22:28.560Z,-1.33
2022-12-18T21:27:30.223Z,-1.49
2022-12-18T21:32:33.463Z,-1.43
2022-12-18T21:37:35.424Z,-1.41
2022-12-18T21:42:55.596Z,-1.27
2022-12-18T21:47:57.550Z,-1.11
2022-12-18T21:52:59.146Z,-1.06
2022-12-18T21:58:00.734Z,-0.68
2022-12-18T22:03:17.849Z,-0.75
2022-12-18T22:08:20.757Z,-1.09
2022-12-18T22:13:22.494Z,-1.20
2022-12-18T22:18:24.071Z,-1.21
2022-12-18T22:23:25.623Z,-1.26
2022-12-18T22:28:45.851Z,-1.23
2022-12-18T22:33:47.420Z,-1.18
2022-12-18T22:38:49.047Z,-0.83
2022-12-18T22:43:50.720Z,-1.01
2022-12-18T22:48:52.301Z,-1.05
2022-12-18T22:53:54.093Z,-1.11
2022-12-18T22:58:56.595Z,-0.95
2022-12-18T23:04:01.112Z,-1.17
2022-12-18T23:09:02.741Z,-1.01
2022-12-18T23:14:04.387Z,-1.29
2022-12-18T23:19:06.076Z,-1.61
2022-12-18T23:24:07.976Z,-1.70
2022-12-18T23:29:09.563Z,-1.60
2022-12-18T23:34:14.167Z,-1.39
2022-12-18T23:39:20.483Z,-1.41
2022-12-18T23:44:31.593Z,-1.46
2022-12-18T23:49:33.184Z,-1.28
2022-12-18T23:54:35.180Z,-0.94
2022-12-18T23:59:36.759Z,-1.19
